Time;durP1;ratioP1;P1;durP2;ratioP2;P2;SDS_P1;SDS_P2;PMS_P1;PMS_P2;Temp;Humidity;BMP_temperature;BMP_pressure;BME280_temperature;BME280_humidity;BME280_pressure;Samples;Min_cycle;Max_cycle;Signal;HPM_P1;HPM_P2
2022/05/21 00:02:22;;;;;;;9.18;6.35;;;13.30;82.10;;;;;;5041756;28;20075;-68
2022/05/21 00:04:47;;;;;;;7.30;6.13;;;13.40;82.10;;;;;;5048487;28;20053;-69
2022/05/21 00:07:13;;;;;;;11.48;7.45;;;13.30;82.10;;;;;;5049057;28;20035;-70
2022/05/21 00:09:39;;;;;;;12.45;8.43;;;13.30;82.10;;;;;;5049119;28;20486;-69
2022/05/21 00:12:06;;;;;;;9.63;6.88;;;13.30;82.10;;;;;;5049167;28;20024;-69
2022/05/21 00:14:34;;;;;;;8.90;7.07;;;13.40;82.80;;;;;;5049623;28;20108;-69
2022/05/21 00:17:01;;;;;;;12.32;8.23;;;13.40;82.00;;;;;;5039095;28;20017;-69
2022/05/21 00:19:26;;;;;;;9.88;7.85;;;13.40;82.00;;;;;;5050657;28;20045;-69
2022/05/21 00:21:52;;;;;;;10.55;8.32;;;13.40;82.00;;;;;;5040241;28;20556;-69
2022/05/21 00:24:17;;;;;;;10.63;7.57;;;13.40;82.00;;;;;;5041004;28;20503;-69
2022/05/21 00:26:44;;;;;;;8.50;6.43;;;13.40;82.10;;;;;;5045200;28;20123;-68
2022/05/21 00:29:09;;;;;;;12.77;8.98;;;13.40;82.00;;;;;;5049347;28;20510;-68
2022/05/21 00:31:36;;;;;;;8.80;6.70;;;13.40;81.90;;;;;;5048956;28;20029;-68
2022/05/21 00:34:01;;;;;;;10.60;7.28;;;13.40;81.90;;;;;;5046152;28;20021;-69
2022/05/21 00:36:27;;;;;;;8.13;6.00;;;13.40;82.00;;;;;;5066735;28;20021;-69
2022/05/21 00:38:53;;;;;;;8.85;6.55;;;13.50;81.90;;;;;;5049703;28;20071;-68
2022/05/21 00:41:19;;;;;;;9.25;6.80;;;13.50;81.80;;;;;;5045044;28;20036;-68
2022/05/21 00:43:54;;;;;;;8.43;6.38;;;13.50;81.80;;;;;;5041026;28;20025;-68
2022/05/21 00:46:23;;;;;;;8.20;7.18;;;13.50;81.80;;;;;;5051463;28;20058;-68
2022/05/21 00:49:06;;;;;;;11.23;7.32;;;13.50;81.80;;;;;;5049586;28;20025;-68
2022/05/21 00:51:38;;;;;;;9.63;7.60;;;13.50;81.80;;;;;;5048630;28;20083;-68
2022/05/21 00:54:05;;;;;;;8.02;6.28;;;13.50;81.80;;;;;;5037793;28;20021;-69
2022/05/21 00:56:34;;;;;;;13.27;9.77;;;13.50;81.80;;;;;;5048775;28;20032;-68
2022/05/21 01:01:52;;;;;;;9.55;7.85;;;13.50;81.90;;;;;;5040447;28;20134;-68
2022/05/21 01:04:18;;;;;;;10.85;8.25;;;13.50;81.80;;;;;;5045445;28;20519;-66
2022/05/21 01:06:44;;;;;;;11.13;7.72;;;13.50;81.70;;;;;;5049036;28;20079;-67
2022/05/21 01:09:09;;;;;;;13.45;10.52;;;13.60;81.80;;;;;;5045620;28;20072;-67
2022/05/21 01:11:36;;;;;;;11.32;8.20;;;13.50;81.80;;;;;;5044280;28;20021;-67
2022/05/21 01:14:04;;;;;;;11.93;8.48;;;13.60;81.80;;;;;;5046259;28;20028;-68
2022/05/21 01:16:30;;;;;;;11.25;7.60;;;13.60;81.80;;;;;;5049149;28;20502;-68
2022/05/21 01:18:56;;;;;;;11.13;8.85;;;13.60;81.70;;;;;;5045923;28;20036;-67
2022/05/21 01:21:22;;;;;;;13.02;11.05;;;13.60;81.80;;;;;;5041716;28;20570;-67
2022/05/21 01:23:48;;;;;;;11.02;8.13;;;13.60;81.90;;;;;;5040733;28;20031;-67
2022/05/21 01:26:17;;;;;;;12.45;9.38;;;13.60;81.80;;;;;;5048589;28;20108;-68
2022/05/21 01:28:43;;;;;;;12.52;9.27;;;13.60;81.80;;;;;;5045222;28;20044;-68
2022/05/21 01:31:09;;;;;;;10.07;8.10;;;13.70;81.80;;;;;;5040405;28;20029;-68
2022/05/21 01:33:38;;;;;;;10.55;8.40;;;13.70;81.70;;;;;;5046898;28;20437;-68
2022/05/21 01:36:06;;;;;;;11.05;8.40;;;13.70;81.70;;;;;;5048171;28;20343;-68
2022/05/21 01:38:33;;;;;;;11.95;9.75;;;13.70;81.70;;;;;;5037609;28;20108;-68
2022/05/21 01:40:59;;;;;;;11.82;9.32;;;13.60;81.70;;;;;;5043423;28;20032;-68
2022/05/21 01:46:12;;;;;;;11.20;7.50;;;13.70;81.70;;;;;;5041150;28;20435;-68
2022/05/21 01:48:38;;;;;;;9.60;8.32;;;13.70;81.60;;;;;;5047730;28;20096;-68
2022/05/21 01:51:06;;;;;;;12.10;9.00;;;13.70;81.60;;;;;;5040333;28;20468;-69
2022/05/21 01:53:33;;;;;;;11.93;9.02;;;13.70;81.70;;;;;;5021653;28;20029;-68
2022/05/21 01:55:59;;;;;;;12.02;8.63;;;13.70;81.80;;;;;;5046914;28;20028;-69
2022/05/21 01:58:26;;;;;;;11.00;9.00;;;13.70;81.80;;;;;;5039203;28;20132;-67
2022/05/21 02:00:52;;;;;;;12.73;9.75;;;13.70;81.90;;;;;;5046338;28;20083;-67
2022/05/21 02:03:18;;;;;;;9.88;8.63;;;13.70;81.90;;;;;;5044413;28;20034;-68
2022/05/21 02:05:47;;;;;;;13.05;8.82;;;13.70;81.90;;;;;;5047303;28;20025;-68
2022/05/21 02:08:14;;;;;;;10.43;7.78;;;13.70;81.90;;;;;;5038111;28;20029;-68
2022/05/21 02:10:41;;;;;;;11.32;8.18;;;13.80;81.90;;;;;;5048655;28;20124;-68
2022/05/21 02:13:11;;;;;;;10.63;7.82;;;13.80;81.90;;;;;;5037230;28;20074;-68
2022/05/21 02:15:37;;;;;;;12.35;9.80;;;13.80;81.90;;;;;;5046343;28;20029;-68
2022/05/21 02:18:03;;;;;;;12.45;8.82;;;13.80;81.80;;;;;;5039209;28;20044;-67
2022/05/21 02:20:28;;;;;;;8.20;6.93;;;13.80;81.90;;;;;;5044940;28;20110;-69
2022/05/21 02:22:54;;;;;;;10.45;7.68;;;13.80;81.90;;;;;;5041202;28;20027;-68
2022/05/21 02:25:20;;;;;;;11.52;7.95;;;13.90;81.80;;;;;;5036794;28;20384;-67
2022/05/21 02:27:45;;;;;;;9.50;6.72;;;13.90;81.80;;;;;;5039942;28;20022;-67
2022/05/21 02:30:12;;;;;;;12.30;7.60;;;13.90;81.80;;;;;;5047175;28;20029;-68
2022/05/21 02:32:38;;;;;;;14.98;8.70;;;13.90;81.80;;;;;;5032722;28;20617;-68
2022/05/21 02:35:04;;;;;;;9.30;7.22;;;13.90;81.90;;;;;;5040016;28;20029;-70
2022/05/21 02:40:14;;;;;;;9.93;7.68;;;13.90;81.90;;;;;;5047876;28;20502;-69
2022/05/21 02:42:48;;;;;;;10.57;6.68;;;13.90;81.90;;;;;;5043295;28;20021;-69
2022/05/21 02:45:14;;;;;;;10.73;7.72;;;13.90;81.90;;;;;;5051164;28;20017;-68
2022/05/21 02:47:40;;;;;;;10.70;7.78;;;14.00;81.90;;;;;;5046515;28;20025;-68
2022/05/21 02:50:07;;;;;;;10.27;7.47;;;14.00;81.80;;;;;;5048680;28;20021;-69
2022/05/21 02:52:33;;;;;;;10.65;7.75;;;14.00;81.80;;;;;;5043388;28;20028;-68
2022/05/21 02:54:58;;;;;;;10.57;8.05;;;14.00;81.90;;;;;;5052296;28;20021;-69
2022/05/21 02:57:25;;;;;;;11.02;7.28;;;14.00;81.80;;;;;;5045083;28;20021;-69
2022/05/21 02:59:51;;;;;;;9.18;7.07;;;14.00;81.90;;;;;;5051770;28;20054;-68
2022/05/21 03:02:17;;;;;;;10.98;7.70;;;14.00;81.90;;;;;;5049907;28;20032;-68
2022/05/21 03:04:43;;;;;;;12.02;8.10;;;14.00;81.90;;;;;;5036864;28;20029;-68
2022/05/21 03:07:09;;;;;;;8.38;5.75;;;14.00;81.90;;;;;;5046309;28;20526;-69
2022/05/21 03:12:19;;;;;;;11.93;8.00;;;14.10;81.70;;;;;;5043763;28;20468;-68
2022/05/21 03:14:44;;;;;;;11.23;7.85;;;14.10;81.80;;;;;;5046238;28;20104;-69
2022/05/21 03:17:11;;;;;;;10.35;6.82;;;14.10;81.90;;;;;;5049998;28;20025;-69
2022/05/21 03:19:37;;;;;;;7.90;6.50;;;14.10;82.00;;;;;;5047505;28;20018;-69
2022/05/21 03:22:03;;;;;;;12.02;7.95;;;14.10;82.00;;;;;;5045836;28;20041;-69
2022/05/21 03:24:29;;;;;;;10.27;7.88;;;14.00;82.20;;;;;;5047059;28;20025;-70
2022/05/21 03:26:55;;;;;;;9.35;6.38;;;14.00;82.30;;;;;;5043393;28;20651;-68
2022/05/21 03:29:21;;;;;;;9.82;6.32;;;14.00;82.30;;;;;;5043387;28;20495;-68
2022/05/21 03:31:46;;;;;;;12.80;8.23;;;14.10;82.20;;;;;;5048905;28;20031;-68
2022/05/21 03:34:12;;;;;;;9.70;7.03;;;14.10;82.20;;;;;;5047087;28;20067;-67
2022/05/21 03:36:37;;;;;;;13.15;7.43;;;14.10;82.10;;;;;;5050326;28;20025;-68
2022/05/21 03:39:04;;;;;;;12.23;7.68;;;14.10;82.10;;;;;;5040184;28;20032;-69
2022/05/21 03:41:30;;;;;;;10.90;7.70;;;14.10;82.10;;;;;;5043383;28;20631;-69
2022/05/21 03:43:56;;;;;;;10.95;6.82;;;14.00;82.30;;;;;;5041483;28;20043;-69
2022/05/21 03:46:22;;;;;;;11.57;6.13;;;14.00;82.30;;;;;;5051819;28;20036;-69
2022/05/21 03:48:48;;;;;;;12.45;7.60;;;14.00;82.40;;;;;;5049379;28;20507;-69
2022/05/21 03:51:13;;;;;;;10.35;6.88;;;14.00;82.50;;;;;;5051466;28;20020;-70
2022/05/21 03:53:39;;;;;;;9.85;6.85;;;14.00;82.60;;;;;;5036237;28;20120;-67
2022/05/21 03:56:05;;;;;;;13.43;8.70;;;14.00;82.70;;;;;;5050820;28;20025;-67
2022/05/21 03:58:32;;;;;;;11.38;7.03;;;14.00;82.90;;;;;;5047607;28;20060;-68
2022/05/21 04:00:57;;;;;;;14.18;7.70;;;14.00;82.80;;;;;;5046365;28;20681;-68
2022/05/21 04:03:24;;;;;;;13.70;8.43;;;14.00;82.80;;;;;;5040912;28;20208;-67
2022/05/21 04:05:50;;;;;;;8.38;6.57;;;14.00;82.90;;;;;;5048507;28;20052;-69
2022/05/21 04:08:16;;;;;;;14.93;7.55;;;14.00;83.00;;;;;;5037507;28;20075;-68
2022/05/21 04:10:42;;;;;;;12.30;7.40;;;14.10;82.90;;;;;;5043532;28;20021;-68
2022/05/21 04:13:07;;;;;;;13.23;8.15;;;14.10;82.90;;;;;;5048810;28;20025;-68
2022/05/21 04:15:33;;;;;;;13.48;7.75;;;14.10;82.80;;;;;;5046492;28;20021;-67
2022/05/21 04:17:59;;;;;;;14.38;7.43;;;14.10;83.00;;;;;;5047643;28;20067;-68
2022/05/21 04:20:25;;;;;;;13.20;7.63;;;14.10;83.00;;;;;;5046871;28;20029;-67
2022/05/21 04:22:51;;;;;;;11.88;6.65;;;14.20;82.90;;;;;;5048798;28;20072;-67
2022/05/21 04:25:17;;;;;;;14.93;7.30;;;14.20;82.90;;;;;;5047403;28;20033;-68
2022/05/21 04:27:43;;;;;;;10.98;6.53;;;14.20;82.80;;;;;;5049580;28;20032;-68
2022/05/21 04:30:14;;;;;;;10.73;5.88;;;14.30;82.70;;;;;;5045146;28;20055;-68
2022/05/21 04:32:40;;;;;;;10.38;5.95;;;14.30;82.60;;;;;;5043532;28;20037;-68
2022/05/21 04:35:06;;;;;;;11.43;5.85;;;14.40;82.50;;;;;;5042950;28;20495;-68
2022/05/21 04:37:31;;;;;;;11.57;6.20;;;14.40;82.40;;;;;;5043885;28;20637;-68
2022/05/21 04:39:57;;;;;;;9.60;5.45;;;14.40;82.40;;;;;;5048044;28;20103;-68
2022/05/21 04:42:22;;;;;;;13.35;6.57;;;14.40;82.30;;;;;;5048666;28;20031;-68
2022/05/21 04:44:48;;;;;;;14.45;6.22;;;14.40;82.30;;;;;;5048823;28;20020;-68
2022/05/21 04:47:13;;;;;;;6.90;4.35;;;14.40;82.30;;;;;;5048800;28;20124;-68
2022/05/21 04:49:39;;;;;;;11.48;5.28;;;14.50;82.30;;;;;;5043218;28;20030;-67
2022/05/21 04:52:05;;;;;;;9.70;5.30;;;14.50;82.20;;;;;;5043243;28;20013;-67
2022/05/21 04:54:30;;;;;;;12.15;5.78;;;14.50;82.10;;;;;;5049900;28;20028;-68
2022/05/21 04:56:56;;;;;;;11.73;5.28;;;14.60;82.10;;;;;;5044580;28;20067;-67
2022/05/21 04:59:21;;;;;;;13.18;5.85;;;14.60;82.20;;;;;;5045098;28;20121;-68
2022/05/21 05:01:47;;;;;;;11.77;4.90;;;14.60;82.20;;;;;;5047617;28;20480;-68
2022/05/21 05:04:12;;;;;;;9.73;4.80;;;14.60;82.10;;;;;;5049889;28;20029;-68
2022/05/21 05:06:38;;;;;;;9.13;4.10;;;14.60;82.10;;;;;;5045148;28;20036;-68
2022/05/21 05:09:05;;;;;;;10.38;4.43;;;14.60;81.90;;;;;;5047768;28;20052;-68
2022/05/21 05:11:31;;;;;;;8.07;4.65;;;14.80;82.50;;;;;;5044293;28;20429;-68
2022/05/21 05:13:57;;;;;;;12.73;5.38;;;14.80;81.50;;;;;;5050754;28;20096;-68
2022/05/21 05:16:22;;;;;;;11.55;4.80;;;15.10;80.90;;;;;;5040377;28;20033;-67
2022/05/21 05:18:48;;;;;;;10.25;4.35;;;15.10;80.60;;;;;;5046746;28;20709;-67
2022/05/21 05:21:13;;;;;;;12.55;4.28;;;15.00;80.60;;;;;;5042613;28;20040;-67
2022/05/21 05:23:39;;;;;;;9.90;4.45;;;15.00;80.60;;;;;;5049740;28;20041;-66
2022/05/21 05:26:04;;;;;;;14.15;5.57;;;15.10;80.60;;;;;;5043896;28;20029;-67
2022/05/21 05:28:30;;;;;;;10.52;4.97;;;15.30;80.10;;;;;;5036037;28;20025;-66
2022/05/21 05:30:56;;;;;;;11.88;4.40;;;15.30;79.60;;;;;;5046166;28;20064;-66
2022/05/21 05:33:23;;;;;;;9.50;3.92;;;15.20;79.60;;;;;;5047549;28;20056;-65
2022/05/21 05:35:50;;;;;;;11.93;4.63;;;15.30;79.70;;;;;;5042494;28;20021;-66
2022/05/21 05:38:16;;;;;;;11.80;4.07;;;15.40;79.20;;;;;;5040788;28;20471;-66
2022/05/21 05:40:45;;;;;;;11.50;4.80;;;15.40;79.00;;;;;;5041901;28;20040;-66
2022/05/21 05:43:12;;;;;;;9.27;3.90;;;15.30;79.00;;;;;;5048131;28;20092;-68
2022/05/21 05:45:38;;;;;;;9.73;4.28;;;15.40;79.20;;;;;;5043645;28;20483;-67
2022/05/21 05:48:05;;;;;;;10.63;4.45;;;16.00;78.50;;;;;;5049367;28;20061;-67
2022/05/21 05:50:31;;;;;;;11.95;4.32;;;16.20;76.70;;;;;;5047174;28;20018;-67
2022/05/21 05:53:04;;;;;;;7.78;3.63;;;16.20;76.20;;;;;;5034016;28;21029;-68
2022/05/21 05:55:30;;;;;;;13.00;4.35;;;16.50;76.20;;;;;;5042602;28;20029;-66
2022/05/21 05:57:56;;;;;;;9.32;3.45;;;17.30;73.80;;;;;;5034512;28;20051;-66
2022/05/21 06:00:23;;;;;;;7.45;3.53;;;17.70;72.40;;;;;;5041936;28;20037;-68
2022/05/21 06:02:58;;;;;;;11.55;3.63;;;18.20;70.80;;;;;;5050870;28;20124;-68
2022/05/21 06:05:25;;;;;;;7.97;3.20;;;18.00;70.30;;;;;;5056070;28;20159;-67
2022/05/21 06:07:53;;;;;;;10.70;3.22;;;17.60;71.40;;;;;;5047670;28;20037;-66
2022/05/21 06:10:25;;;;;;;12.68;3.30;;;17.20;72.10;;;;;;5034857;28;20118;-67
2022/05/21 06:12:50;;;;;;;11.18;3.30;;;16.90;73.10;;;;;;5047281;28;20022;-68
2022/05/21 06:15:16;;;;;;;9.75;2.95;;;16.70;73.60;;;;;;5036107;28;20044;-68
2022/05/21 06:17:42;;;;;;;7.85;2.40;;;16.50;74.10;;;;;;5044789;28;20078;-66
2022/05/21 06:20:11;;;;;;;10.25;3.13;;;16.40;74.60;;;;;;5038306;28;20025;-66
2022/05/21 06:22:36;;;;;;;6.85;2.70;;;16.60;74.00;;;;;;5042305;28;20039;-66
2022/05/21 06:25:03;;;;;;;8.68;2.80;;;16.50;74.20;;;;;;5045359;28;20033;-66
2022/05/21 06:27:28;;;;;;;9.63;2.72;;;16.50;74.20;;;;;;5033234;28;20057;-66
2022/05/21 06:29:56;;;;;;;10.57;2.92;;;16.30;74.40;;;;;;5037357;28;20048;-66
2022/05/21 06:32:22;;;;;;;7.10;2.33;;;16.30;74.50;;;;;;5042438;28;20029;-68
2022/05/21 06:34:47;;;;;;;6.35;2.10;;;16.30;74.70;;;;;;5047135;28;20047;-68
2022/05/21 06:37:13;;;;;;;10.35;2.75;;;16.50;74.50;;;;;;5044178;28;20056;-65
2022/05/21 06:39:42;;;;;;;7.95;2.45;;;16.40;74.10;;;;;;5048824;28;20502;-66
2022/05/21 06:42:08;;;;;;;8.55;2.50;;;16.40;73.80;;;;;;5036328;28;20025;-66
2022/05/21 06:44:34;;;;;;;7.38;2.35;;;16.50;73.70;;;;;;5035664;28;20057;-64
2022/05/21 06:46:59;;;;;;;8.15;2.10;;;16.60;72.90;;;;;;5037474;28;20464;-66
2022/05/21 06:49:28;;;;;;;7.03;2.22;;;16.80;72.70;;;;;;5041940;28;20106;-66
2022/05/21 06:51:56;;;;;;;9.48;2.50;;;17.00;72.00;;;;;;5041735;28;20058;-66
2022/05/21 06:54:23;;;;;;;6.75;2.10;;;17.00;71.50;;;;;;5040987;28;20747;-66
2022/05/21 06:56:49;;;;;;;5.75;1.95;;;17.10;71.60;;;;;;5040361;28;20102;-66
2022/05/21 06:59:16;;;;;;;10.18;2.55;;;17.10;71.40;;;;;;5045033;28;20495;-66
2022/05/21 07:01:42;;;;;;;7.10;2.40;;;17.00;71.00;;;;;;5038162;28;20029;-67
2022/05/21 07:04:08;;;;;;;8.00;2.53;;;16.90;70.80;;;;;;5039685;28;20029;-67
2022/05/21 07:09:20;;;;;;;7.03;2.03;;;16.80;71.10;;;;;;5041238;28;20040;-66
2022/05/21 07:11:47;;;;;;;6.97;2.03;;;16.80;71.20;;;;;;5036233;28;20028;-67
2022/05/21 07:14:12;;;;;;;6.32;1.95;;;16.90;71.30;;;;;;5038151;28;20395;-65
2022/05/21 07:16:38;;;;;;;8.32;2.08;;;17.20;70.90;;;;;;5040679;28;20018;-66
2022/05/21 07:19:03;;;;;;;8.02;2.28;;;17.20;70.50;;;;;;5043612;28;20036;-66
2022/05/21 07:21:29;;;;;;;6.10;2.08;;;17.30;70.20;;;;;;5032027;28;20033;-66
2022/05/21 07:23:54;;;;;;;7.60;1.90;;;17.50;70.10;;;;;;5031061;28;20036;-67
2022/05/21 07:26:20;;;;;;;8.55;2.55;;;17.80;69.50;;;;;;5034405;28;20021;-67
2022/05/21 07:28:45;;;;;;;4.95;1.67;;;18.00;68.60;;;;;;5038377;28;20033;-67
2022/05/21 07:31:11;;;;;;;7.60;2.28;;;18.00;68.20;;;;;;5031868;28;20018;-67
2022/05/21 07:33:37;;;;;;;8.80;2.30;;;17.90;67.50;;;;;;5048285;28;20124;-67
2022/05/21 07:36:03;;;;;;;5.40;1.70;;;17.90;67.20;;;;;;5042986;28;20070;-67
2022/05/21 07:38:28;;;;;;;4.90;1.63;;;17.90;67.70;;;;;;5048835;28;20064;-66
2022/05/21 07:40:55;;;;;;;6.75;2.10;;;18.10;67.60;;;;;;5042871;28;20116;-66
2022/05/21 07:43:27;;;;;;;8.32;2.35;;;18.20;66.90;;;;;;5045411;28;20035;-66
2022/05/21 07:45:53;;;;;;;;;;;18.20;66.30;;;;;;5041450;28;20025;-67
2022/05/21 07:48:19;;;;;;;7.78;2.55;;;18.10;66.40;;;;;;5041208;28;19983;-66
2022/05/21 07:50:53;;;;;;;6.18;1.95;;;18.00;66.30;;;;;;5042729;28;20025;-66
2022/05/21 07:53:21;;;;;;;7.38;2.05;;;18.10;66.70;;;;;;5038532;28;20467;-67
2022/05/21 07:55:50;;;;;;;6.18;1.83;;;18.10;66.20;;;;;;5038938;28;20018;-67
2022/05/21 07:58:17;;;;;;;6.72;2.00;;;18.10;66.10;;;;;;5040841;28;20029;-66
2022/05/21 08:00:44;;;;;;;7.97;2.38;;;18.10;66.00;;;;;;5040856;28;20441;-66
2022/05/21 08:03:10;;;;;;;4.70;1.65;;;18.30;65.50;;;;;;5035444;28;20090;-66
2022/05/21 08:05:37;;;;;;;3.78;1.60;;;18.30;65.20;;;;;;5039525;28;20041;-67
2022/05/21 08:08:03;;;;;;;6.18;1.65;;;18.30;65.00;;;;;;5035400;28;20037;-66
2022/05/21 08:10:29;;;;;;;4.22;1.45;;;18.30;64.90;;;;;;5035813;28;20024;-66
2022/05/21 08:12:54;;;;;;;6.03;1.90;;;18.30;64.70;;;;;;5040318;28;20052;-66
2022/05/21 08:15:21;;;;;;;6.45;1.98;;;18.30;64.40;;;;;;5042894;28;20032;-66
2022/05/21 08:17:46;;;;;;;5.45;1.83;;;18.30;64.20;;;;;;5042167;28;20029;-67
2022/05/21 08:20:13;;;;;;;6.78;1.75;;;18.10;64.50;;;;;;5042731;28;20104;-66
2022/05/21 08:28:08;;;;;;;7.75;1.92;;;18.20;65.10;;;;;;5050273;28;20040;-66
2022/05/21 08:30:34;;;;;;;7.57;2.30;;;18.10;64.90;;;;;;5043387;28;20025;-66
2022/05/21 08:33:00;;;;;;;8.13;2.15;;;18.00;65.10;;;;;;5049524;28;20085;-65
2022/05/21 08:35:26;;;;;;;5.82;1.80;;;18.10;65.20;;;;;;5047734;28;20029;-66
2022/05/21 08:37:51;;;;;;;4.35;1.40;;;18.20;65.30;;;;;;5050811;28;20041;-66
2022/05/21 08:40:17;;;;;;;5.82;1.90;;;18.50;65.20;;;;;;5041612;28;20033;-67
2022/05/21 08:42:54;;;;;;;6.80;1.95;;;18.70;64.30;;;;;;5042524;28;20438;-66
2022/05/21 08:45:40;;;;;;;5.32;1.70;;;18.80;63.60;;;;;;5039297;28;20033;-66
2022/05/21 08:48:07;;;;;;;5.15;1.80;;;18.80;63.20;;;;;;5038334;28;20430;-65
2022/05/21 08:50:34;;;;;;;7.75;1.85;;;18.60;62.90;;;;;;5042623;28;20025;-66
2022/05/21 08:53:07;;;;;;;9.75;2.22;;;18.70;63.30;;;;;;5038605;28;20398;-66
2022/05/21 08:55:38;;;;;;;6.85;2.03;;;18.80;63.00;;;;;;5040117;28;20116;-65
2022/05/21 08:58:19;;;;;;;6.13;1.93;;;18.80;62.50;;;;;;5042150;28;20017;-67
2022/05/21 09:00:46;;;;;;;5.88;1.90;;;18.80;62.10;;;;;;5036829;28;20323;-67
2022/05/21 09:03:14;;;;;;;5.60;1.77;;;18.90;62.10;;;;;;5043719;28;20029;-66
2022/05/21 09:05:45;;;;;;;6.97;1.80;;;19.00;61.60;;;;;;5054859;28;20031;-66
2022/05/21 09:08:16;;;;;;;3.95;1.38;;;19.10;61.50;;;;;;5056595;28;20087;-66
2022/05/21 09:10:56;;;;;;;7.10;1.77;;;19.20;61.10;;;;;;5049197;28;20470;-66
2022/05/21 09:13:41;;;;;;;5.45;1.80;;;19.40;60.60;;;;;;5041970;28;20027;-67
2022/05/21 09:18:55;;;;;;;7.50;1.98;;;19.50;59.90;;;;;;5044569;28;20501;-65
2022/05/21 09:21:24;;;;;;;4.78;1.52;;;19.60;60.00;;;;;;5048259;28;20020;-66
2022/05/21 09:24:01;;;;;;;5.85;2.00;;;19.80;59.70;;;;;;5055060;28;20118;-66
2022/05/21 09:26:30;;;;;;;7.60;1.92;;;19.80;59.40;;;;;;5055988;28;20021;-66
2022/05/21 09:29:35;;;;;;;5.95;1.63;;;19.80;58.50;;;;;;5048052;28;20028;-66
2022/05/21 09:32:31;;;;;;;5.18;1.58;;;19.70;58.60;;;;;;5035156;28;20047;-66
2022/05/21 09:35:12;;;;;;;5.45;1.90;;;19.70;59.00;;;;;;5034789;28;20108;-66
2022/05/21 09:37:37;;;;;;;6.85;1.70;;;19.80;58.90;;;;;;5045568;28;20036;-66
2022/05/21 09:40:34;;;;;;;6.88;1.83;;;19.80;59.00;;;;;;5041443;28;20025;-66
2022/05/21 09:45:46;;;;;;;3.88;1.30;;;19.90;58.40;;;;;;5048522;28;20044;-66
2022/05/21 09:48:11;;;;;;;4.95;1.65;;;20.00;58.30;;;;;;5049636;28;20421;-66
2022/05/21 09:50:57;;;;;;;4.95;1.70;;;20.10;58.20;;;;;;5046409;28;20036;-67
2022/05/21 09:53:32;;;;;;;6.13;1.73;;;20.00;58.40;;;;;;5049643;28;20105;-66
2022/05/21 09:56:07;;;;;;;4.60;1.50;;;20.00;58.50;;;;;;5043498;28;20021;-66
2022/05/21 09:58:37;;;;;;;5.45;1.85;;;20.00;58.70;;;;;;5048681;28;20021;-66
2022/05/21 10:01:05;;;;;;;3.75;1.50;;;19.90;58.80;;;;;;5045790;28;20101;-66
2022/05/21 10:03:49;;;;;;;5.20;2.00;;;19.80;59.20;;;;;;5050107;28;20391;-66
2022/05/21 10:06:32;;;;;;;5.13;2.00;;;19.80;59.30;;;;;;5044838;28;20538;-66
2022/05/21 10:12:05;;;;;;;4.55;2.00;;;20.00;59.50;;;;;;5048938;28;20040;-66
2022/05/21 10:14:42;;;;;;;6.00;2.42;;;20.10;59.20;;;;;;5066698;28;20479;-66
2022/05/21 10:17:16;;;;;;;7.35;2.47;;;20.20;58.80;;;;;;5042079;28;20457;-66
2022/05/21 10:20:07;;;;;;;6.75;1.90;;;20.10;58.50;;;;;;5048116;28;20059;-66
2022/05/21 10:22:59;;;;;;;6.10;2.30;;;20.20;58.80;;;;;;5045485;28;20025;-66
2022/05/21 10:25:42;;;;;;;5.22;2.25;;;20.40;58.70;;;;;;5043245;28;20159;-66
2022/05/21 10:28:37;;;;;;;5.72;2.40;;;20.30;57.90;;;;;;5048656;28;20025;-66
2022/05/21 10:31:26;;;;;;;9.25;2.65;;;20.30;57.80;;;;;;5034071;28;20053;-66
2022/05/21 10:34:22;;;;;;;5.60;1.88;;;20.30;57.60;;;;;;5043117;28;20048;-64
2022/05/21 10:37:05;;;;;;;5.10;2.05;;;20.30;57.20;;;;;;5047982;28;20498;-65
2022/05/21 10:40:00;;;;;;;6.82;2.10;;;20.40;57.40;;;;;;5045428;28;20017;-67
2022/05/21 10:42:54;;;;;;;5.65;2.08;;;20.50;57.20;;;;;;5043434;28;20045;-66
2022/05/21 10:45:31;;;;;;;7.18;2.20;;;20.50;56.20;;;;;;5029512;28;20045;-65
2022/05/21 10:48:20;;;;;;;6.03;1.85;;;20.50;56.10;;;;;;5045741;28;20483;-66
2022/05/21 10:50:56;;;;;;;4.90;1.70;;;20.50;56.00;;;;;;5041452;28;20037;-64
2022/05/21 10:53:22;;;;;;;6.43;1.70;;;20.60;56.70;;;;;;5038415;28;20052;-65
2022/05/21 10:56:20;;;;;;;6.00;2.08;;;20.70;55.80;;;;;;5042447;28;20088;-65
2022/05/21 10:58:51;;;;;;;4.38;1.30;;;20.60;55.70;;;;;;5037815;28;20022;-66
2022/05/21 11:01:16;;;;;;;6.73;1.77;;;20.70;55.60;;;;;;5050153;28;20068;-66
2022/05/21 11:03:47;;;;;;;4.97;1.70;;;20.70;55.20;;;;;;5047443;28;20784;-66
2022/05/21 11:06:29;;;;;;;6.57;1.50;;;20.70;54.80;;;;;;5047173;28;20068;-67
2022/05/21 11:09:18;;;;;;;4.28;1.67;;;20.60;54.70;;;;;;5047618;28;20700;-65
2022/05/21 11:11:57;;;;;;;4.72;1.73;;;20.60;54.80;;;;;;5045906;28;20079;-65
2022/05/21 11:14:34;;;;;;;7.63;1.80;;;20.60;55.20;;;;;;5044253;28;20032;-66
2022/05/21 11:17:19;;;;;;;7.22;2.00;;;20.60;55.30;;;;;;5042385;28;20052;-66
2022/05/21 11:20:03;;;;;;;4.40;1.58;;;20.50;55.50;;;;;;5045886;28;20411;-66
2022/05/21 11:22:39;;;;;;;5.70;1.80;;;20.40;55.60;;;;;;5048543;28;20029;-66
2022/05/21 11:25:27;;;;;;;4.90;1.80;;;20.30;55.50;;;;;;5048403;28;20017;-66
2022/05/21 11:28:14;;;;;;;5.32;1.60;;;20.10;56.10;;;;;;5051158;28;20383;-66
2022/05/21 11:30:40;;;;;;;4.18;1.80;;;20.00;56.00;;;;;;5040253;28;20026;-66
2022/05/21 11:38:49;;;;;;;6.35;2.05;;;20.00;56.70;;;;;;5037855;28;20075;-66
2022/05/21 11:41:29;;;;;;;3.72;1.70;;;20.00;56.40;;;;;;5036770;28;20033;-66
2022/05/21 11:47:05;;;;;;;4.20;1.67;;;20.40;56.10;;;;;;5040987;28;20068;-66
2022/05/21 11:49:42;;;;;;;4.65;1.60;;;20.70;55.80;;;;;;5037056;28;20059;-66
2022/05/21 11:52:26;;;;;;;3.55;1.58;;;20.90;55.30;;;;;;5045653;28;20430;-66
2022/05/21 11:54:58;;;;;;;6.38;1.75;;;21.00;54.90;;;;;;5047726;28;20033;-66
2022/05/21 11:57:43;;;;;;;4.88;1.60;;;21.10;54.70;;;;;;5049657;28;20083;-66
2022/05/21 12:00:17;;;;;;;5.32;1.73;;;21.20;54.80;;;;;;5044805;28;20364;-66
2022/05/21 12:02:58;;;;;;;3.95;1.70;;;21.30;54.50;;;;;;5051315;28;20531;-66
2022/05/21 12:05:37;;;;;;;4.90;1.88;;;21.30;53.60;;;;;;5046826;28;20379;-65
2022/05/21 12:08:16;;;;;;;4.78;1.80;;;21.10;53.10;;;;;;5042169;28;20131;-65
2022/05/21 12:11:04;;;;;;;4.75;1.73;;;21.10;53.00;;;;;;5042165;28;20033;-66
2022/05/21 12:13:35;;;;;;;5.07;1.73;;;21.20;52.70;;;;;;5029118;28;20044;-65
2022/05/21 12:16:16;;;;;;;4.78;1.73;;;21.30;52.80;;;;;;5046690;28;20033;-65
2022/05/21 12:18:49;;;;;;;5.55;1.70;;;21.50;52.30;;;;;;5050574;28;20108;-66
2022/05/21 12:21:35;;;;;;;4.80;1.50;;;21.70;51.60;;;;;;5047480;28;20096;-65
2022/05/21 12:24:07;;;;;;;5.53;2.08;;;21.60;51.90;;;;;;5037913;28;20069;-66
2022/05/21 12:26:37;;;;;;;6.28;1.92;;;21.70;50.80;;;;;;5048808;28;20120;-65
2022/05/21 12:29:08;;;;;;;5.90;1.70;;;21.70;50.40;;;;;;5045209;28;20029;-65
2022/05/21 12:31:51;;;;;;;3.17;1.30;;;21.70;50.70;;;;;;5049478;28;20151;-66
2022/05/21 12:34:20;;;;;;;4.47;1.55;;;21.80;51.00;;;;;;5042937;28;20032;-65
2022/05/21 12:37:10;;;;;;;4.35;1.67;;;22.10;50.80;;;;;;5047324;28;20032;-65
2022/05/21 12:40:00;;;;;;;4.55;1.83;;;22.30;50.40;;;;;;5047161;28;20500;-65
2022/05/21 12:42:29;;;;;;;5.43;1.65;;;22.50;49.70;;;;;;5041833;28;20119;-65
2022/05/21 12:44:55;;;;;;;6.80;2.20;;;22.10;49.00;;;;;;5046223;28;20028;-66
2022/05/21 12:47:30;;;;;;;4.32;1.50;;;22.10;49.70;;;;;;5035084;28;20491;-67
2022/05/21 12:49:58;;;;;;;6.75;1.77;;;22.30;50.00;;;;;;5041247;28;20025;-67
2022/05/21 12:52:43;;;;;;;5.95;1.60;;;22.40;49.70;;;;;;5045940;28;20029;-66
2022/05/21 12:55:16;;;;;;;6.35;1.90;;;22.60;49.20;;;;;;5035279;28;20017;-67
2022/05/21 12:57:42;;;;;;;5.75;1.55;;;22.50;48.50;;;;;;5050670;28;20025;-67
2022/05/21 13:00:08;;;;;;;4.82;1.85;;;22.60;49.00;;;;;;5035407;28;20472;-66
2022/05/21 13:02:52;;;;;;;7.43;2.30;;;22.60;48.80;;;;;;5038701;28;20027;-66
2022/05/21 13:05:30;;;;;;;6.32;1.92;;;22.70;48.60;;;;;;5040101;28;20029;-66
2022/05/21 13:08:01;;;;;;;6.00;1.80;;;22.60;47.80;;;;;;5040054;28;20017;-66
2022/05/21 13:10:33;;;;;;;4.68;1.90;;;22.40;48.30;;;;;;5047922;28;20649;-66
2022/05/21 13:13:09;;;;;;;5.43;1.80;;;22.30;48.30;;;;;;5045173;28;20028;-66
2022/05/21 13:15:40;;;;;;;5.07;1.58;;;22.10;49.10;;;;;;5041045;28;20479;-65
2022/05/21 13:18:36;;;;;;;4.78;1.63;;;22.00;49.80;;;;;;5043587;28;20051;-66
2022/05/21 13:21:17;;;;;;;7.47;2.08;;;22.00;50.20;;;;;;5041509;28;20024;-66
2022/05/21 13:23:58;;;;;;;4.73;1.70;;;22.00;50.50;;;;;;5038342;28;20474;-66
2022/05/21 13:26:29;;;;;;;6.10;1.95;;;22.20;50.10;;;;;;5040513;28;20033;-65
2022/05/21 13:29:13;;;;;;;3.93;1.40;;;22.30;49.80;;;;;;5048161;28;20033;-65
2022/05/21 13:31:39;;;;;;;3.47;1.50;;;22.40;49.90;;;;;;5045024;28;20650;-66
2022/05/21 13:34:04;;;;;;;4.15;1.60;;;22.50;49.50;;;;;;5042408;28;20021;-65
2022/05/21 13:36:31;;;;;;;4.70;1.33;;;22.60;49.50;;;;;;5043697;28;20431;-65